Time;durP1;ratioP1;P1;durP2;ratioP2;P2;SDS_P1;SDS_P2;PMS_P1;PMS_P2;Temp;Humidity;BMP_temperature;BMP_pressure;BME280_temperature;BME280_humidity;BME280_pressure;Samples;Min_cycle;Max_cycle;Signal;HPM_P1;HPM_P2
2021/07/19 00:00:13;;;;;;;13.20;9.15;;;22.70;99.90;;;;;;4847691;29;20190;-90
2021/07/19 00:02:40;;;;;;;13.88;8.90;;;22.60;99.90;;;;;;4879431;29;20185;-89
2021/07/19 00:05:07;;;;;;;13.50;8.85;;;22.60;99.90;;;;;;4862978;29;20230;-90
2021/07/19 00:07:32;;;;;;;11.20;8.70;;;22.60;99.90;;;;;;4879613;29;20186;-90
2021/07/19 00:09:58;;;;;;;11.00;9.00;;;22.60;99.90;;;;;;4847377;29;20221;-90
2021/07/19 00:12:24;;;;;;;14.05;9.32;;;22.60;99.90;;;;;;4832646;29;20594;-90
2021/07/19 00:14:50;;;;;;;12.43;9.00;;;22.60;99.90;;;;;;4832491;29;20193;-89
2021/07/19 00:17:17;;;;;;;12.43;8.75;;;22.60;99.90;;;;;;4863179;29;20277;-89
2021/07/19 00:19:43;;;;;;;12.23;8.85;;;22.60;99.90;;;;;;4879272;29;20186;-89
2021/07/19 00:22:09;;;;;;;14.75;9.00;;;22.50;99.90;;;;;;4862702;29;20633;-89
2021/07/19 00:24:35;;;;;;;13.05;9.65;;;22.50;99.90;;;;;;4862530;29;20213;-90
2021/07/19 00:27:01;;;;;;;11.43;8.88;;;22.50;99.90;;;;;;4879492;29;20189;-90
2021/07/19 00:29:27;;;;;;;11.52;8.85;;;22.50;99.90;;;;;;4862674;29;20570;-89
2021/07/19 00:31:52;;;;;;;13.93;9.07;;;22.50;99.90;;;;;;4847188;29;20706;-89
2021/07/19 00:34:18;;;;;;;16.45;8.95;;;22.50;99.90;;;;;;4879727;29;20188;-89
2021/07/19 00:36:44;;;;;;;13.73;8.43;;;22.50;99.90;;;;;;4862444;29;20190;-89
2021/07/19 00:39:10;;;;;;;13.63;9.18;;;22.40;99.90;;;;;;4847399;29;20186;-88
2021/07/19 00:41:38;;;;;;;12.90;8.93;;;22.30;99.90;;;;;;4862369;29;20539;-88
2021/07/19 00:44:05;;;;;;;12.43;9.43;;;22.30;99.90;;;;;;4863064;29;20273;-88
2021/07/19 00:46:31;;;;;;;12.02;8.63;;;22.20;99.90;;;;;;4862484;29;20200;-89
2021/07/19 00:48:57;;;;;;;11.68;9.13;;;22.20;99.90;;;;;;4846889;29;20186;-88
2021/07/19 00:51:24;;;;;;;13.38;9.35;;;22.10;99.90;;;;;;4862502;29;20194;-89
2021/07/19 00:53:50;;;;;;;15.27;9.20;;;22.10;99.90;;;;;;4860940;29;20200;-90
2021/07/19 00:56:16;;;;;;;15.43;9.88;;;22.10;99.90;;;;;;4862227;29;20644;-89
2021/07/19 00:58:43;;;;;;;14.48;9.35;;;22.10;99.90;;;;;;4878738;29;20186;-89
2021/07/19 01:01:10;;;;;;;14.15;8.45;;;22.10;99.90;;;;;;4843792;29;20242;-90
2021/07/19 01:03:36;;;;;;;11.02;8.80;;;22.00;99.90;;;;;;4843684;29;20246;-88
2021/07/19 01:06:03;;;;;;;12.27;9.23;;;22.00;99.90;;;;;;4843810;29;20190;-88
2021/07/19 01:08:29;;;;;;;13.32;9.25;;;22.00;99.90;;;;;;4843831;29;20190;-89
2021/07/19 01:10:56;;;;;;;12.57;8.80;;;22.00;99.90;;;;;;4859124;29;20305;-89
2021/07/19 01:13:21;;;;;;;17.05;9.02;;;22.00;99.90;;;;;;4860946;29;20175;-89
2021/07/19 01:15:47;;;;;;;11.80;9.05;;;22.00;99.90;;;;;;4843477;29;20238;-89
2021/07/19 01:18:13;;;;;;;14.80;8.73;;;22.00;99.90;;;;;;4843759;29;20195;-88
2021/07/19 01:21:00;;;;;;;12.75;8.90;;;21.90;99.90;;;;;;4861069;29;20282;-88
2021/07/19 01:24:24;;;;;;;12.63;9.45;;;21.90;99.90;;;;;;4864564;29;20323;-89
2021/07/19 01:27:25;;;;;;;12.35;8.45;;;21.90;99.90;;;;;;4773717;30;20287;-88
2021/07/19 01:29:53;;;;;;;13.30;8.60;;;21.80;99.90;;;;;;4863586;29;20210;-88
2021/07/19 01:32:21;;;;;;;12.38;8.40;;;21.80;99.90;;;;;;4862737;29;20209;-87
2021/07/19 01:34:47;;;;;;;11.90;8.40;;;21.70;99.90;;;;;;4863707;29;20239;-87
2021/07/19 01:37:14;;;;;;;11.40;8.70;;;21.70;99.90;;;;;;4862571;29;20186;-90
2021/07/19 01:39:40;;;;;;;12.40;8.60;;;21.70;99.90;;;;;;4846974;29;20207;-89
2021/07/19 01:42:07;;;;;;;12.60;8.20;;;21.70;99.90;;;;;;4847575;29;20197;-89
2021/07/19 01:44:33;;;;;;;12.30;8.35;;;21.60;99.90;;;;;;4847275;29;20665;-90
2021/07/19 01:47:00;;;;;;;13.20;8.38;;;21.60;99.90;;;;;;4846665;29;20980;-88
2021/07/19 01:49:26;;;;;;;10.45;8.05;;;21.60;99.90;;;;;;4862085;29;20214;-88
2021/07/19 01:51:53;;;;;;;18.58;8.55;;;21.50;99.90;;;;;;4846391;29;20555;-88
2021/07/19 01:54:21;;;;;;;12.27;8.18;;;21.50;99.90;;;;;;4862516;29;20179;-89
2021/07/19 01:56:48;;;;;;;10.05;8.63;;;21.50;99.90;;;;;;4862101;29;20217;-89
2021/07/19 01:59:14;;;;;;;11.38;8.60;;;21.50;99.90;;;;;;4863606;29;20194;-89
2021/07/19 02:01:41;;;;;;;11.75;8.55;;;21.40;99.90;;;;;;4873864;29;20237;-88
2021/07/19 02:04:09;;;;;;;14.00;8.23;;;21.40;99.90;;;;;;4881758;29;20174;-88
2021/07/19 02:06:35;;;;;;;10.85;7.80;;;21.40;99.90;;;;;;4849636;29;20225;-89
2021/07/19 02:09:05;;;;;;;15.30;8.43;;;21.40;99.90;;;;;;4864876;29;20575;-89
2021/07/19 02:11:33;;;;;;;16.05;8.23;;;21.40;99.90;;;;;;4881795;29;20174;-89
2021/07/19 02:13:59;;;;;;;14.05;7.85;;;21.40;99.90;;;;;;4849573;29;20186;-89
2021/07/19 02:16:28;;;;;;;10.30;7.38;;;21.40;99.90;;;;;;4865009;29;20206;-88
2021/07/19 02:18:54;;;;;;;11.70;7.68;;;21.40;99.90;;;;;;4881125;29;20702;-88
2021/07/19 02:21:23;;;;;;;10.32;6.90;;;21.30;99.90;;;;;;4865049;29;20219;-88
2021/07/19 02:23:50;;;;;;;10.32;7.55;;;21.30;99.90;;;;;;4881454;29;20228;-89
2021/07/19 02:26:18;;;;;;;10.10;7.18;;;21.30;99.90;;;;;;4881508;29;20182;-88
2021/07/19 02:28:45;;;;;;;12.15;7.45;;;21.20;99.90;;;;;;4864419;29;20198;-88
2021/07/19 02:31:12;;;;;;;11.25;7.82;;;21.20;99.90;;;;;;4880806;29;20249;-88
2021/07/19 02:33:39;;;;;;;10.38;6.68;;;21.20;99.90;;;;;;4881159;29;20193;-88
2021/07/19 02:36:06;;;;;;;10.90;6.28;;;21.10;99.90;;;;;;4864315;29;20290;-88
2021/07/19 02:38:33;;;;;;;10.80;6.40;;;21.00;99.90;;;;;;4864759;29;20174;-88
2021/07/19 02:40:59;;;;;;;13.15;6.35;;;21.00;99.90;;;;;;4881364;29;20269;-88
2021/07/19 02:43:26;;;;;;;27.27;6.93;;;20.90;99.90;;;;;;4864341;29;20220;-88
2021/07/19 02:45:54;;;;;;;13.70;6.35;;;20.90;99.90;;;;;;4863985;29;20193;-88
2021/07/19 02:48:21;;;;;;;12.15;6.38;;;20.80;99.90;;;;;;4864460;29;20648;-88
2021/07/19 02:50:48;;;;;;;11.98;6.15;;;20.80;99.90;;;;;;4881813;29;20296;-88
2021/07/19 02:53:17;;;;;;;10.43;6.05;;;20.70;99.90;;;;;;4882910;29;20185;-88
2021/07/19 02:55:44;;;;;;;11.38;5.93;;;20.70;99.90;;;;;;4880877;29;20186;-88
2021/07/19 02:58:15;;;;;;;8.90;5.70;;;20.70;99.90;;;;;;4863955;29;20182;-88
2021/07/19 03:00:42;;;;;;;9.07;5.60;;;20.70;99.90;;;;;;4880548;29;20236;-88
2021/07/19 03:03:13;;;;;;;10.45;6.22;;;20.60;99.90;;;;;;4880642;29;20185;-88
2021/07/19 03:05:43;;;;;;;11.10;5.60;;;20.60;99.90;;;;;;4864267;29;20266;-88
2021/07/19 03:08:12;;;;;;;9.05;5.25;;;20.60;99.90;;;;;;4848216;29;20532;-87
2021/07/19 03:10:38;;;;;;;10.73;5.05;;;20.60;99.90;;;;;;4880541;29;20245;-87
2021/07/19 03:13:09;;;;;;;10.80;5.85;;;20.60;99.90;;;;;;4863697;29;20190;-88
2021/07/19 03:15:38;;;;;;;9.60;5.22;;;20.50;99.90;;;;;;4864046;29;20182;-88
2021/07/19 03:18:06;;;;;;;8.57;4.88;;;20.50;99.90;;;;;;4863565;29;20719;-87
2021/07/19 03:20:36;;;;;;;9.77;5.13;;;20.40;99.90;;;;;;4848717;29;20194;-89
2021/07/19 03:23:06;;;;;;;12.93;6.18;;;20.40;99.90;;;;;;4863543;29;20188;-86
2021/07/19 03:25:33;;;;;;;6.15;4.57;;;20.40;99.90;;;;;;4863944;29;20276;-85
2021/07/19 03:27:59;;;;;;;15.32;4.55;;;20.40;99.90;;;;;;4863453;29;20190;-86
2021/07/19 03:30:25;;;;;;;12.88;5.85;;;20.30;99.90;;;;;;4880497;29;20244;-86
2021/07/19 03:32:51;;;;;;;8.07;4.72;;;20.20;99.90;;;;;;4863803;29;20655;-86
2021/07/19 03:35:21;;;;;;;7.90;4.25;;;20.20;99.90;;;;;;4880590;29;20190;-85
2021/07/19 03:37:47;;;;;;;13.32;5.43;;;20.20;99.90;;;;;;4863400;29;20174;-88
2021/07/19 03:40:16;;;;;;;12.05;4.68;;;20.20;99.90;;;;;;4863267;29;20241;-88
2021/07/19 03:42:43;;;;;;;6.10;4.05;;;20.20;99.90;;;;;;4863221;29;20238;-88
2021/07/19 03:45:13;;;;;;;9.38;5.00;;;20.20;99.90;;;;;;4862624;29;20189;-88
2021/07/19 03:47:41;;;;;;;10.75;5.70;;;20.20;99.90;;;;;;4863548;29;20173;-88
2021/07/19 03:50:08;;;;;;;7.60;4.47;;;20.20;99.90;;;;;;4879885;29;20245;-88
2021/07/19 03:52:41;;;;;;;10.07;5.07;;;20.30;99.90;;;;;;4879836;29;20714;-89
2021/07/19 03:55:09;;;;;;;11.70;4.68;;;20.20;99.90;;;;;;4879645;29;20198;-89
2021/07/19 03:57:39;;;;;;;13.35;5.13;;;20.30;99.90;;;;;;4863261;29;20186;-89
2021/07/19 04:00:13;;;;;;;9.15;4.97;;;20.20;99.90;;;;;;4862901;29;20246;-89
2021/07/19 04:02:42;;;;;;;12.13;5.00;;;20.20;99.90;;;;;;4861247;29;20222;-88
2021/07/19 04:05:10;;;;;;;9.18;4.85;;;20.20;99.90;;;;;;4844481;29;20224;-88
2021/07/19 04:07:45;;;;;;;10.30;4.95;;;20.20;99.90;;;;;;4860288;29;20182;-88
2021/07/19 04:10:13;;;;;;;11.00;5.30;;;20.20;99.90;;;;;;4859708;29;20217;-88
2021/07/19 04:12:44;;;;;;;10.93;5.13;;;20.20;99.90;;;;;;4859923;29;20182;-88
2021/07/19 04:15:11;;;;;;;10.98;5.97;;;20.20;99.90;;;;;;4860685;29;20728;-88
2021/07/19 04:17:37;;;;;;;8.60;4.53;;;20.20;99.90;;;;;;4859820;29;20186;-88
2021/07/19 04:20:05;;;;;;;11.90;5.50;;;20.20;99.90;;;;;;4859799;29;20668;-89
2021/07/19 04:22:31;;;;;;;10.43;4.32;;;20.20;99.90;;;;;;4861163;29;20190;-89
2021/07/19 04:24:57;;;;;;;9.68;5.03;;;20.30;99.90;;;;;;4860787;29;20186;-87
2021/07/19 04:27:23;;;;;;;12.88;4.57;;;20.30;99.90;;;;;;4860898;29;20182;-88
2021/07/19 04:29:50;;;;;;;9.23;5.22;;;20.30;99.90;;;;;;4859608;29;20217;-88
2021/07/19 04:32:19;;;;;;;9.20;4.65;;;20.20;99.90;;;;;;4843718;29;20695;-88
2021/07/19 04:34:46;;;;;;;7.03;4.55;;;20.20;99.90;;;;;;4859622;29;20208;-88
2021/07/19 04:37:11;;;;;;;13.70;5.22;;;20.30;99.90;;;;;;4859314;29;20238;-88
2021/07/19 04:39:38;;;;;;;24.85;5.47;;;20.40;99.90;;;;;;4861108;29;20182;-89
2021/07/19 04:42:05;;;;;;;8.55;4.75;;;20.40;99.90;;;;;;4859251;29;20273;-88
2021/07/19 04:44:32;;;;;;;8.75;4.95;;;20.40;99.90;;;;;;4859496;29;20186;-89
2021/07/19 04:46:58;;;;;;;10.55;4.40;;;20.50;99.90;;;;;;4857216;29;20224;-88
2021/07/19 04:49:24;;;;;;;14.13;4.88;;;20.50;99.90;;;;;;4850197;29;20790;-88
2021/07/19 04:51:49;;;;;;;9.48;4.57;;;20.60;99.90;;;;;;4850782;29;20582;-88
2021/07/19 04:54:27;;;;;;;12.13;5.05;;;20.60;99.90;;;;;;4835911;29;20175;-88
2021/07/19 04:56:55;;;;;;;10.02;4.55;;;20.70;99.90;;;;;;4851705;29;20223;-88
2021/07/19 04:59:23;;;;;;;13.23;4.90;;;20.80;99.90;;;;;;4853687;29;20179;-88
2021/07/19 05:01:53;;;;;;;11.55;5.05;;;20.90;99.90;;;;;;4867959;29;20261;-88
2021/07/19 05:04:25;;;;;;;9.90;5.13;;;20.90;99.90;;;;;;4854358;29;20178;-89
2021/07/19 05:06:53;;;;;;;11.18;4.80;;;20.90;99.90;;;;;;4856944;29;20215;-88
2021/07/19 05:09:19;;;;;;;9.85;5.43;;;20.90;99.90;;;;;;4865961;29;20225;-90
2021/07/19 05:11:47;;;;;;;12.18;4.85;;;20.80;99.90;;;;;;4850486;29;20189;-88
2021/07/19 05:14:13;;;;;;;9.65;5.20;;;20.80;99.90;;;;;;4882280;29;20181;-89
2021/07/19 05:16:40;;;;;;;12.52;6.07;;;20.80;99.90;;;;;;4882652;29;20261;-88
2021/07/19 05:19:06;;;;;;;12.70;5.75;;;20.90;99.90;;;;;;4882453;29;20178;-88
2021/07/19 05:21:34;;;;;;;7.82;4.85;;;21.00;99.90;;;;;;4865829;29;20193;-88
2021/07/19 05:23:59;;;;;;;10.70;4.97;;;21.10;99.90;;;;;;4862821;29;20265;-88
2021/07/19 05:26:25;;;;;;;12.15;5.43;;;21.20;99.90;;;;;;4857372;29;20622;-89
2021/07/19 05:28:51;;;;;;;14.65;4.88;;;21.40;99.90;;;;;;4856414;29;20186;-89
2021/07/19 05:31:16;;;;;;;10.98;4.85;;;21.50;99.90;;;;;;4855908;29;20277;-89
2021/07/19 05:33:42;;;;;;;12.73;5.60;;;21.60;99.90;;;;;;4842129;29;20190;-89
2021/07/19 05:36:10;;;;;;;13.85;5.72;;;21.70;99.90;;;;;;4859361;29;20179;-89
2021/07/19 05:38:36;;;;;;;13.38;5.00;;;21.70;99.90;;;;;;4848539;29;20183;-90
2021/07/19 05:41:02;;;;;;;15.43;4.93;;;21.90;99.90;;;;;;4863856;29;20198;-90
2021/07/19 05:43:28;;;;;;;9.20;4.40;;;22.00;99.90;;;;;;4847309;29;20250;-90
2021/07/19 05:45:53;;;;;;;9.48;6.10;;;22.10;99.90;;;;;;4847427;29;20572;-91
2021/07/19 05:48:19;;;;;;;12.70;6.18;;;22.20;99.90;;;;;;4847065;29;20253;-91
2021/07/19 05:50:45;;;;;;;14.70;5.30;;;22.20;99.90;;;;;;4847447;29;20582;-90
2021/07/19 05:53:10;;;;;;;12.18;5.40;;;22.20;99.90;;;;;;4850034;29;20197;-92
2021/07/19 05:55:36;;;;;;;14.15;5.78;;;22.20;99.90;;;;;;4882285;29;20178;-92
2021/07/19 05:58:03;;;;;;;11.63;5.95;;;22.10;99.90;;;;;;4865997;29;20190;-90
2021/07/19 06:00:29;;;;;;;12.55;5.30;;;22.10;99.90;;;;;;4865453;29;20186;-90
2021/07/19 06:02:55;;;;;;;12.50;5.60;;;22.00;99.90;;;;;;4850257;29;20230;-91
2021/07/19 06:05:21;;;;;;;12.30;5.57;;;22.10;99.90;;;;;;4865661;29;20711;-89
2021/07/19 06:07:47;;;;;;;8.65;5.20;;;22.20;99.90;;;;;;4864341;29;20205;-89
2021/07/19 06:10:13;;;;;;;17.70;6.30;;;22.10;99.90;;;;;;4881658;29;20418;-90
2021/07/19 06:12:40;;;;;;;14.43;6.38;;;22.20;99.90;;;;;;4881600;29;20204;-91
2021/07/19 06:15:08;;;;;;;17.73;5.40;;;22.30;99.90;;;;;;4881699;29;20189;-90
2021/07/19 06:17:37;;;;;;;11.65;5.35;;;22.30;99.90;;;;;;4865293;29;20182;-91
2021/07/19 06:20:18;;;;;;;9.90;5.10;;;22.40;99.90;;;;;;4857332;29;20210;-89
2021/07/19 06:22:45;;;;;;;9.40;5.75;;;22.40;99.90;;;;;;4860202;29;20550;-89
2021/07/19 06:25:12;;;;;;;13.05;5.80;;;22.40;99.90;;;;;;4863206;29;20653;-89
2021/07/19 06:27:39;;;;;;;15.90;6.25;;;22.40;99.90;;;;;;4853915;29;20328;-91
2021/07/19 06:30:08;;;;;;;7.63;5.03;;;22.30;99.90;;;;;;4864616;29;20220;-91
2021/07/19 06:32:34;;;;;;;21.88;6.28;;;22.20;99.90;;;;;;4857784;29;20225;-91
2021/07/19 06:35:01;;;;;;;24.63;6.22;;;22.10;99.90;;;;;;4871710;29;20210;-90
2021/07/19 06:37:26;;;;;;;11.73;5.43;;;22.10;99.90;;;;;;4840914;29;20197;-90
2021/07/19 06:39:52;;;;;;;10.55;5.30;;;22.00;99.90;;;;;;4854335;29;20191;-91
2021/07/19 06:42:19;;;;;;;12.13;5.78;;;22.00;99.90;;;;;;4871520;29;20726;-90
2021/07/19 06:44:47;;;;;;;13.80;6.15;;;21.90;99.90;;;;;;4855576;29;20187;-93
2021/07/19 06:47:12;;;;;;;11.68;5.10;;;21.80;99.90;;;;;;4870501;29;20175;-90
2021/07/19 06:49:38;;;;;;;16.90;6.18;;;21.70;99.90;;;;;;4854442;29;20229;-89
2021/07/19 06:52:04;;;;;;;12.27;5.22;;;21.70;99.90;;;;;;4855268;29;20645;-89
2021/07/19 06:54:30;;;;;;;11.02;5.85;;;21.60;99.90;;;;;;4845494;29;20281;-88
2021/07/19 06:56:55;;;;;;;16.60;5.78;;;21.70;99.90;;;;;;4862197;29;20178;-90
2021/07/19 06:59:21;;;;;;;9.63;5.13;;;21.80;99.90;;;;;;4862463;29;20605;-89
2021/07/19 07:01:46;;;;;;;15.43;5.28;;;22.00;99.90;;;;;;4864541;29;20234;-89
2021/07/19 07:04:12;;;;;;;13.20;5.38;;;22.10;99.90;;;;;;4845198;29;20273;-89
2021/07/19 07:06:38;;;;;;;11.05;5.30;;;22.10;99.90;;;;;;4843622;29;20197;-89
2021/07/19 07:09:04;;;;;;;9.85;4.80;;;22.10;99.90;;;;;;4860254;29;20191;-89
2021/07/19 07:11:30;;;;;;;9.63;5.00;;;22.00;99.90;;;;;;4843344;29;20265;-90
2021/07/19 07:13:57;;;;;;;13.77;5.80;;;22.10;99.90;;;;;;4843685;29;20599;-89
2021/07/19 07:16:23;;;;;;;11.77;4.82;;;22.20;99.90;;;;;;4843606;29;20183;-90
2021/07/19 07:18:49;;;;;;;9.65;5.35;;;22.40;99.90;;;;;;4859709;29;20191;-90
2021/07/19 07:21:15;;;;;;;20.90;5.35;;;22.50;99.90;;;;;;4861357;29;20235;-89
2021/07/19 07:23:40;;;;;;;13.10;5.28;;;22.70;99.90;;;;;;4861946;29;20190;-89
2021/07/19 07:26:06;;;;;;;10.55;5.00;;;23.00;99.90;;;;;;4845219;29;20187;-90
2021/07/19 07:28:32;;;;;;;10.85;5.00;;;23.10;99.90;;;;;;4845119;29;20190;-89
2021/07/19 07:30:59;;;;;;;6.60;4.75;;;23.10;99.90;;;;;;4861837;29;20305;-90
2021/07/19 07:33:24;;;;;;;8.82;4.97;;;22.90;99.90;;;;;;4829937;29;20183;-88
2021/07/19 07:35:51;;;;;;;8.35;4.80;;;22.80;99.90;;;;;;4844922;29;20194;-88
2021/07/19 07:38:17;;;;;;;11.60;5.57;;;22.70;99.90;;;;;;4829780;29;20210;-88
2021/07/19 07:40:44;;;;;;;21.20;6.68;;;22.70;99.90;;;;;;4861467;29;20215;-89
2021/07/19 07:43:09;;;;;;;11.75;7.13;;;22.70;99.90;;;;;;4845314;29;20671;-90
2021/07/19 07:45:35;;;;;;;13.73;5.35;;;22.70;99.90;;;;;;4844576;29;20195;-89
2021/07/19 07:48:01;;;;;;;11.48;5.10;;;22.60;99.90;;;;;;4861414;29;20182;-87
2021/07/19 07:50:27;;;;;;;15.95;6.65;;;22.60;99.90;;;;;;4844444;29;20218;-88
2021/07/19 07:52:53;;;;;;;16.15;5.60;;;22.60;99.90;;;;;;4861506;29;20640;-88
2021/07/19 07:55:18;;;;;;;13.00;5.50;;;22.60;99.90;;;;;;4844772;29;20197;-89
2021/07/19 07:57:44;;;;;;;11.63;6.20;;;22.70;99.90;;;;;;4861475;29;20543;-88
2021/07/19 08:00:13;;;;;;;11.40;6.10;;;22.80;99.90;;;;;;4831992;29;20194;-88
2021/07/19 08:02:39;;;;;;;15.90;6.45;;;22.90;99.90;;;;;;4831414;29;20290;-88
2021/07/19 08:05:06;;;;;;;15.52;6.88;;;22.90;99.90;;;;;;4861005;29;20190;-88
2021/07/19 08:07:31;;;;;;;14.93;6.07;;;21.40;99.90;;;;;;4844319;29;20178;-89
2021/07/19 08:09:57;;;;;;;15.38;6.20;;;22.90;99.90;;;;;;4829729;29;20218;-89
2021/07/19 08:12:23;;;;;;;10.75;5.55;;;23.00;99.90;;;;;;4829209;29;20183;-89
2021/07/19 08:14:49;;;;;;;12.50;5.80;;;23.10;99.90;;;;;;4860985;29;20182;-89
2021/07/19 08:17:15;;;;;;;15.13;6.22;;;23.20;99.90;;;;;;4860892;29;20632;-90
2021/07/19 08:19:41;;;;;;;10.23;5.97;;;23.30;99.90;;;;;;4860805;29;20191;-89
2021/07/19 08:22:11;;;;;;;11.20;6.28;;;23.30;99.90;;;;;;4861100;29;20186;-88
2021/07/19 08:24:37;;;;;;;15.82;5.93;;;23.30;99.90;;;;;;4860729;29;20190;-89
2021/07/19 08:27:03;;;;;;;15.07;6.05;;;23.10;99.90;;;;;;4829240;29;20182;-89
2021/07/19 08:29:29;;;;;;;13.75;6.57;;;23.10;99.90;;;;;;4813413;29;20222;-89
2021/07/19 08:31:55;;;;;;;14.48;7.10;;;23.10;99.90;;;;;;4829130;29;20190;-88
2021/07/19 08:34:21;;;;;;;9.98;6.25;;;23.30;99.90;;;;;;4860667;29;20648;-90
2021/07/19 08:36:49;;;;;;;19.73;6.32;;;23.40;99.90;;;;;;4844134;29;20179;-90
2021/07/19 08:39:15;;;;;;;13.13;6.55;;;23.50;99.90;;;;;;4844645;29;20178;-90
2021/07/19 08:41:44;;;;;;;11.73;6.15;;;23.60;99.90;;;;;;4843765;29;20182;-90
2021/07/19 08:44:10;;;;;;;10.52;6.50;;;23.70;99.90;;;;;;4828999;29;20634;-90
2021/07/19 08:46:39;;;;;;;14.90;5.95;;;23.90;99.90;;;;;;4843916;29;20186;-89
2021/07/19 08:49:05;;;;;;;9.07;5.68;;;24.10;99.90;;;;;;4860726;29;20174;-89
2021/07/19 08:51:32;;;;;;;8.38;5.65;;;24.20;99.90;;;;;;4860408;29;20218;-91
2021/07/19 08:54:02;;;;;;;14.85;6.00;;;24.50;99.90;;;;;;4843971;29;20187;-89
2021/07/19 08:56:29;;;;;;;9.75;5.88;;;24.30;99.90;;;;;;4843850;29;20187;-89
2021/07/19 08:58:55;;;;;;;9.80;5.05;;;24.30;99.90;;;;;;4843874;29;20179;-89
2021/07/19 09:01:21;;;;;;;11.55;5.95;;;24.30;99.90;;;;;;4843958;29;20242;-90
2021/07/19 09:03:47;;;;;;;13.35;5.70;;;24.10;99.90;;;;;;4827889;29;20269;-89
2021/07/19 09:06:13;;;;;;;8.02;5.25;;;24.10;99.90;;;;;;4829941;29;20326;-89
2021/07/19 09:08:50;;;;;;;12.43;5.93;;;24.20;99.90;;;;;;4859082;29;20181;-90
2021/07/19 09:11:18;;;;;;;18.35;5.20;;;24.30;99.90;;;;;;4877017;29;20346;-90
2021/07/19 09:14:06;;;;;;;9.57;4.93;;;24.30;99.90;;;;;;4844617;29;20186;-90
2021/07/19 09:16:40;;;;;;;10.32;5.07;;;24.30;99.90;;;;;;4844074;29;20217;-88
2021/07/19 09:19:07;;;;;;;9.65;5.07;;;24.30;99.90;;;;;;4860581;29;20189;-90
2021/07/19 09:21:35;;;;;;;12.45;5.20;;;24.20;99.90;;;;;;4859911;29;20182;-90
2021/07/19 09:24:06;;;;;;;9.10;4.85;;;24.00;99.90;;;;;;4859976;29;20651;-88
2021/07/19 09:26:33;;;;;;;12.23;6.20;;;23.80;99.90;;;;;;4862171;29;20190;-88
2021/07/19 09:29:01;;;;;;;7.68;5.00;;;23.80;99.90;;;;;;4878873;29;20178;-89
2021/07/19 09:31:36;;;;;;;8.25;5.22;;;23.70;99.90;;;;;;4862153;29;20221;-88
2021/07/19 09:34:13;;;;;;;11.30;5.65;;;23.60;99.90;;;;;;4862089;29;20233;-89
2021/07/19 09:37:06;;;;;;;10.32;5.43;;;23.40;99.90;;;;;;4862133;29;20186;-89
2021/07/19 09:39:37;;;;;;;9.50;5.20;;;23.40;99.90;;;;;;4878413;29;20190;-89
2021/07/19 09:42:10;;;;;;;16.55;5.57;;;23.40;99.90;;;;;;4863872;29;20186;-89
2021/07/19 09:44:37;;;;;;;9.02;5.95;;;23.40;99.90;;;;;;4882420;29;20170;-90
2021/07/19 09:47:05;;;;;;;14.75;5.80;;;23.50;99.90;;;;;;4882009;29;20189;-91
2021/07/19 09:49:32;;;;;;;10.90;5.60;;;23.60;99.90;;;;;;4865135;29;20214;-89
2021/07/19 09:52:10;;;;;;;10.45;5.47;;;23.60;99.90;;;;;;4865495;29;20655;-88
2021/07/19 09:54:44;;;;;;;11.02;5.00;;;23.50;99.90;;;;;;4881385;29;20181;-89
2021/07/19 09:57:11;;;;;;;9.40;4.47;;;23.40;99.90;;;;;;4865300;29;20237;-90
2021/07/19 09:59:51;;;;;;;10.50;5.75;;;23.40;99.90;;;;;;4865304;29;20186;-89
2021/07/19 10:02:34;;;;;;;18.45;5.55;;;23.60;99.90;;;;;;4845631;29;20322;-90
2021/07/19 10:05:00;;;;;;;9.98;5.22;;;23.90;99.90;;;;;;4854915;29;20664;-88
2021/07/19 10:07:26;;;;;;;12.55;6.07;;;24.40;99.90;;;;;;4851576;29;20202;-88
2021/07/19 10:10:00;;;;;;;12.93;5.28;;;24.90;99.90;;;;;;4853612;29;20226;-89
2021/07/19 10:12:26;;;;;;;28.95;6.15;;;25.20;99.90;;;;;;4844189;29;20191;-89
2021/07/19 10:14:52;;;;;;;15.48;6.45;;;25.10;99.90;;;;;;4844740;29;20265;-88
2021/07/19 10:17:19;;;;;;;13.52;6.32;;;25.00;99.90;;;;;;4844755;29;20179;-87
2021/07/19 10:19:45;;;;;;;12.05;6.22;;;25.10;99.90;;;;;;4845905;29;20191;-88
2021/07/19 10:22:12;;;;;;;15.32;6.13;;;25.00;99.90;;;;;;4854620;29;20210;-87
2021/07/19 10:24:43;;;;;;;12.98;7.35;;;24.80;99.90;;;;;;4852261;29;20259;-89
2021/07/19 10:27:24;;;;;;;12.75;6.43;;;24.70;99.90;;;;;;4851943;29;20186;-89
2021/07/19 10:29:50;;;;;;;10.45;6.00;;;24.70;99.90;;;;;;4852416;29;20566;-89
2021/07/19 10:32:19;;;;;;;9.45;5.93;;;24.50;99.90;;;;;;4852065;29;20183;-89
2021/07/19 10:34:49;;;;;;;11.65;6.03;;;24.40;99.90;;;;;;4844440;29;20262;-87
2021/07/19 10:37:29;;;;;;;9.73;5.95;;;24.50;99.90;;;;;;4845192;29;20709;-89
2021/07/19 10:39:57;;;;;;;19.05;7.93;;;24.70;99.90;;;;;;4853149;29;20195;-89
2021/07/19 10:42:36;;;;;;;14.55;5.53;;;24.90;99.90;;;;;;4853236;29;20323;-89
2021/07/19 10:45:12;;;;;;;10.07;5.88;;;25.00;99.90;;;;;;4852988;29;20187;-88
2021/07/19 10:47:56;;;;;;;17.65;6.43;;;25.10;99.90;;;;;;4850311;29;20190;-88
2021/07/19 10:50:27;;;;;;;10.38;5.70;;;23.60;99.90;;;;;;4838947;29;20696;-89
2021/07/19 10:52:59;;;;;;;11.30;6.45;;;25.30;99.90;;;;;;4864741;29;20319;-90
2021/07/19 10:55:30;;;;;;;12.65;6.18;;;25.70;99.90;;;;;;4871874;29;20197;-89
2021/07/19 10:58:04;;;;;;;13.38;7.13;;;26.30;99.90;;;;;;4852830;29;20518;-89
2021/07/19 11:00:44;;;;;;;10.18;6.65;;;26.40;99.90;;;;;;4870949;29;20193;-90
2021/07/19 11:03:16;;;;;;;15.10;6.88;;;26.20;99.90;;;;;;4853539;29;20178;-91
2021/07/19 11:05:47;;;;;;;11.98;7.20;;;26.10;99.90;;;;;;4852621;29;20194;-88
2021/07/19 11:08:27;;;;;;;11.45;7.82;;;25.90;99.90;;;;;;4869943;29;20179;-89
2021/07/19 11:10:54;;;;;;;12.75;8.05;;;25.90;99.90;;;;;;4869240;29;20718;-89
2021/07/19 11:13:31;;;;;;;14.98;9.10;;;26.00;99.90;;;;;;4838161;29;20186;-90
2021/07/19 11:15:58;;;;;;;14.02;8.60;;;27.60;99.90;;;;;;4852821;29;20196;-89
2021/07/19 11:18:27;;;;;;;16.95;10.25;;;26.50;99.90;;;;;;4866272;29;20186;-88
2021/07/19 11:20:56;;;;;;;20.73;8.75;;;26.60;99.90;;;;;;4874103;29;20190;-89
2021/07/19 11:23:40;;;;;;;16.30;8.90;;;26.70;99.90;;;;;;4870627;29;20567;-88
2021/07/19 11:26:21;;;;;;;14.77;8.15;;;26.40;99.90;;;;;;4871645;29;20182;-89
2021/07/19 11:28:46;;;;;;;15.43;9.15;;;26.10;99.90;;;;;;4873286;29;20226;-88
2021/07/19 11:31:26;;;;;;;13.88;9.50;;;25.90;99.90;;;;;;4853213;29;20222;-88
2021/07/19 11:34:01;;;;;;;12.40;8.85;;;27.70;99.90;;;;;;4866683;29;20179;-89
2021/07/19 11:36:29;;;;;;;14.80;9.43;;;26.10;99.90;;;;;;4853408;29;20599;-87
2021/07/19 11:38:58;;;;;;;15.15;9.30;;;26.30;99.90;;;;;;4849909;29;20182;-88
2021/07/19 11:41:29;;;;;;;14.15;9.38;;;26.50;99.90;;;;;;4877014;29;20251;-89
2021/07/19 11:43:57;;;;;;;14.80;9.98;;;26.90;99.90;;;;;;4875335;29;20178;-86
2021/07/19 11:46:32;;;;;;;18.13;10.07;;;26.30;99.90;;;;;;4862020;29;20238;-91
2021/07/19 11:49:09;;;;;;;12.32;9.05;;;27.10;99.90;;;;;;4847008;29;20174;-92
2021/07/19 11:51:37;;;;;;;39.35;9.43;;;27.20;99.90;;;;;;4879688;29;20209;-91
2021/07/19 11:54:04;;;;;;;15.20;8.57;;;27.00;99.90;;;;;;4867726;29;20179;-93
2021/07/19 11:56:31;;;;;;;17.38;8.90;;;26.70;99.90;;;;;;4847908;29;20190;-91
2021/07/19 11:58:59;;;;;;;13.63;9.57;;;26.30;99.90;;;;;;4831517;29;20683;-92
2021/07/19 12:01:35;;;;;;;15.60;9.40;;;26.30;99.90;;;;;;4842854;29;20242;-91
2021/07/19 12:04:05;;;;;;;16.63;9.15;;;26.30;99.90;;;;;;4855925;29;20659;-91
2021/07/19 12:06:32;;;;;;;12.57;9.05;;;26.50;99.90;;;;;;4844006;29;20186;-94
2021/07/19 12:09:04;;;;;;;24.52;9.15;;;26.80;99.90;;;;;;4839045;29;20175;-93
2021/07/19 12:11:31;;;;;;;14.70;9.82;;;26.80;99.90;;;;;;4853808;29;20221;-93
2021/07/19 12:14:04;;;;;;;16.55;8.88;;;26.90;99.90;;;;;;4853431;29;20183;-90
2021/07/19 12:16:41;;;;;;;14.05;9.18;;;26.90;99.90;;;;;;4847070;29;20183;-90
2021/07/19 12:19:08;;;;;;;16.52;9.40;;;27.00;99.90;;;;;;4855208;29;20213;-90
2021/07/19 12:21:38;;;;;;;18.05;8.30;;;27.10;99.40;;;;;;4849396;29;20187;-89
2021/07/19 12:24:03;;;;;;;16.33;9.00;;;27.30;99.90;;;;;;4847008;29;20182;-89
2021/07/19 12:26:32;;;;;;;16.00;9.02;;;27.10;99.90;;;;;;4849828;29;20549;-90
2021/07/19 12:29:03;;;;;;;16.90;8.15;;;27.00;99.90;;;;;;4849501;29;20178;-90
2021/07/19 12:31:37;;;;;;;13.48;7.97;;;26.90;99.90;;;;;;4846900;29;20306;-90
2021/07/19 12:34:08;;;;;;;14.85;8.68;;;27.10;99.90;;;;;;4852871;29;20192;-89
2021/07/19 12:36:35;;;;;;;16.27;8.77;;;27.40;99.90;;;;;;4853710;29;20184;-89
2021/07/19 12:39:16;;;;;;;14.10;10.00;;;27.60;99.90;;;;;;4844352;29;20175;-89
2021/07/19 12:41:47;;;;;;;16.00;9.15;;;27.60;99.20;;;;;;4853023;29;20258;-91
2021/07/19 12:44:13;;;;;;;16.77;8.85;;;27.30;99.60;;;;;;4846545;29;20297;-93